sensor_id;sensor_type;location;lat;lon;timestamp;pressure;altitude;pressure_sealevel;temperature;humidity
60246;BME280;46107;53.356;-1.524;2023-03-14T00:01:44;96076.09;;;2.90;81.81
60246;BME280;46107;53.356;-1.524;2023-03-14T00:04:11;96078.57;;;1.79;84.53
60246;BME280;46107;53.356;-1.524;2023-03-14T00:06:39;96083.01;;;2.86;79.22
60246;BME280;46107;53.356;-1.524;2023-03-14T00:09:07;96084.91;;;2.66;81.61
60246;BME280;46107;53.356;-1.524;2023-03-14T00:11:35;96088.55;;;2.25;81.85
60246;BME280;46107;53.356;-1.524;2023-03-14T00:14:04;96095.82;;;2.34;81.75
60246;BME280;46107;53.356;-1.524;2023-03-14T00:16:31;96098.97;;;2.39;79.89
60246;BME280;46107;53.356;-1.524;2023-03-14T00:18:59;96103.21;;;2.51;82.34
60246;BME280;46107;53.356;-1.524;2023-03-14T00:21:26;96115.89;;;1.91;84.34
60246;BME280;46107;53.356;-1.524;2023-03-14T00:23:54;96122.31;;;2.37;82.27
60246;BME280;46107;53.356;-1.524;2023-03-14T00:26:22;96125.97;;;3.00;79.37
60246;BME280;46107;53.356;-1.524;2023-03-14T00:28:52;96126.18;;;2.48;80.68
60246;BME280;46107;53.356;-1.524;2023-03-14T00:31:20;96127.10;;;1.45;83.07
60246;BME280;46107;53.356;-1.524;2023-03-14T00:33:48;96140.02;;;2.71;82.91
60246;BME280;46107;53.356;-1.524;2023-03-14T00:36:16;96146.26;;;2.51;81.10
60246;BME280;46107;53.356;-1.524;2023-03-14T00:38:46;96154.91;;;1.62;84.95
60246;BME280;46107;53.356;-1.524;2023-03-14T00:41:16;96163.24;;;2.40;84.20
60246;BME280;46107;53.356;-1.524;2023-03-14T00:43:44;96169.99;;;2.09;82.45
60246;BME280;46107;53.356;-1.524;2023-03-14T00:46:12;96175.74;;;1.77;82.82
60246;BME280;46107;53.356;-1.524;2023-03-14T00:48:39;96176.57;;;2.39;81.69
60246;BME280;46107;53.356;-1.524;2023-03-14T00:51:08;96180.16;;;2.42;80.82
60246;BME280;46107;53.356;-1.524;2023-03-14T00:53:37;96190.24;;;3.26;78.39
60246;BME280;46107;53.356;-1.524;2023-03-14T00:56:09;96190.67;;;2.32;81.29
60246;BME280;46107;53.356;-1.524;2023-03-14T00:58:38;96196.05;;;2.34;80.65
60246;BME280;46107;53.356;-1.524;2023-03-14T01:01:07;96202.06;;;3.13;78.16
60246;BME280;46107;53.356;-1.524;2023-03-14T01:03:35;96211.80;;;1.71;85.38
60246;BME280;46107;53.356;-1.524;2023-03-14T01:06:10;96218.18;;;2.05;85.07
60246;BME280;46107;53.356;-1.524;2023-03-14T01:08:38;96225.67;;;1.69;84.19
60246;BME280;46107;53.356;-1.524;2023-03-14T01:11:07;96225.86;;;1.35;86.20
60246;BME280;46107;53.356;-1.524;2023-03-14T01:13:35;96238.35;;;1.66;87.35
60246;BME280;46107;53.356;-1.524;2023-03-14T01:16:05;96247.37;;;1.72;87.17
60246;BME280;46107;53.356;-1.524;2023-03-14T01:18:34;96257.42;;;1.14;88.48
60246;BME280;46107;53.356;-1.524;2023-03-14T01:21:02;96259.88;;;1.03;89.15
60246;BME280;46107;53.356;-1.524;2023-03-14T01:23:30;96265.90;;;0.77;89.57
60246;BME280;46107;53.356;-1.524;2023-03-14T01:25:58;96274.76;;;0.38;92.57
60246;BME280;46107;53.356;-1.524;2023-03-14T01:28:25;96280.43;;;0.38;91.93
60246;BME280;46107;53.356;-1.524;2023-03-14T01:30:53;96286.90;;;0.51;92.65
60246;BME280;46107;53.356;-1.524;2023-03-14T01:33:20;96291.36;;;0.61;91.29
60246;BME280;46107;53.356;-1.524;2023-03-14T01:35:50;96300.66;;;0.64;90.43
60246;BME280;46107;53.356;-1.524;2023-03-14T01:38:18;96302.06;;;-0.74;95.14
60246;BME280;46107;53.356;-1.524;2023-03-14T01:40:45;96315.46;;;-0.08;96.10
60246;BME280;46107;53.356;-1.524;2023-03-14T01:43:16;96312.58;;;0.31;92.54
60246;BME280;46107;53.356;-1.524;2023-03-14T01:46:49;96319.32;;;0.65;91.81
60246;BME280;46107;53.356;-1.524;2023-03-14T01:49:22;96327.92;;;-0.23;93.23
60246;BME280;46107;53.356;-1.524;2023-03-14T01:51:56;96328.71;;;0.84;89.66
60246;BME280;46107;53.356;-1.524;2023-03-14T01:54:29;96333.52;;;0.79;89.76
60246;BME280;46107;53.356;-1.524;2023-03-14T01:57:04;96339.63;;;0.94;87.45
60246;BME280;46107;53.356;-1.524;2023-03-14T01:59:35;96346.32;;;0.54;90.55
60246;BME280;46107;53.356;-1.524;2023-03-14T02:02:11;96351.61;;;0.47;89.02
60246;BME280;46107;53.356;-1.524;2023-03-14T02:04:38;96352.75;;;0.41;90.62
60246;BME280;46107;53.356;-1.524;2023-03-14T02:07:12;96353.91;;;0.85;89.07
60246;BME280;46107;53.356;-1.524;2023-03-14T02:09:40;96353.99;;;1.66;85.64
60246;BME280;46107;53.356;-1.524;2023-03-14T02:12:08;96366.32;;;0.26;88.14
60246;BME280;46107;53.356;-1.524;2023-03-14T02:14:37;96364.49;;;0.73;87.09
60246;BME280;46107;53.356;-1.524;2023-03-14T02:17:05;96377.34;;;0.73;88.18
60246;BME280;46107;53.356;-1.524;2023-03-14T02:19:44;96382.93;;;0.53;87.60
60246;BME280;46107;53.356;-1.524;2023-03-14T02:22:16;96384.55;;;-0.07;90.34
60246;BME280;46107;53.356;-1.524;2023-03-14T02:24:48;96390.13;;;0.21;88.54
60246;BME280;46107;53.356;-1.524;2023-03-14T02:27:19;96398.17;;;0.19;88.95
60246;BME280;46107;53.356;-1.524;2023-03-14T02:29:50;96407.11;;;1.10;86.42
60246;BME280;46107;53.356;-1.524;2023-03-14T02:32:21;96414.99;;;0.58;85.56
60246;BME280;46107;53.356;-1.524;2023-03-14T02:34:53;96425.67;;;-0.01;87.06
60246;BME280;46107;53.356;-1.524;2023-03-14T02:37:25;96429.45;;;-0.07;87.53
60246;BME280;46107;53.356;-1.524;2023-03-14T02:39:54;96432.13;;;0.61;89.76
60246;BME280;46107;53.356;-1.524;2023-03-14T02:42:22;96432.78;;;0.55;87.59
60246;BME280;46107;53.356;-1.524;2023-03-14T02:44:53;96439.74;;;0.41;89.27
60246;BME280;46107;53.356;-1.524;2023-03-14T02:47:27;96446.77;;;0.33;90.59
60246;BME280;46107;53.356;-1.524;2023-03-14T02:50:02;96447.34;;;0.08;90.04
60246;BME280;46107;53.356;-1.524;2023-03-14T02:52:30;96459.75;;;0.07;91.30
60246;BME280;46107;53.356;-1.524;2023-03-14T02:54:58;96472.09;;;-1.06;95.20
60246;BME280;46107;53.356;-1.524;2023-03-14T02:57:26;96485.24;;;-1.24;95.56
60246;BME280;46107;53.356;-1.524;2023-03-14T02:59:54;96494.27;;;-1.63;99.02
60246;BME280;46107;53.356;-1.524;2023-03-14T03:02:21;96501.87;;;-0.48;96.40
60246;BME280;46107;53.356;-1.524;2023-03-14T03:04:49;96511.83;;;0.09;91.79
60246;BME280;46107;53.356;-1.524;2023-03-14T03:07:17;96519.81;;;0.03;90.81
60246;BME280;46107;53.356;-1.524;2023-03-14T03:09:44;96529.04;;;-0.51;92.44
60246;BME280;46107;53.356;-1.524;2023-03-14T03:12:12;96532.64;;;-0.40;91.01
60246;BME280;46107;53.356;-1.524;2023-03-14T03:14:39;96543.67;;;-0.16;89.35
60246;BME280;46107;53.356;-1.524;2023-03-14T03:17:07;96550.46;;;-0.19;90.62
60246;BME280;46107;53.356;-1.524;2023-03-14T03:19:35;96553.11;;;0.15;90.21
60246;BME280;46107;53.356;-1.524;2023-03-14T03:22:03;96559.55;;;0.21;87.46
60246;BME280;46107;53.356;-1.524;2023-03-14T03:24:31;96563.51;;;-0.07;88.25
60246;BME280;46107;53.356;-1.524;2023-03-14T03:26:58;96569.25;;;0.22;87.41
60246;BME280;46107;53.356;-1.524;2023-03-14T03:29:26;96568.18;;;-0.35;91.32
60246;BME280;46107;53.356;-1.524;2023-03-14T03:31:53;96573.11;;;-0.76;90.23
60246;BME280;46107;53.356;-1.524;2023-03-14T03:34:21;96583.44;;;-0.85;92.54
60246;BME280;46107;53.356;-1.524;2023-03-14T03:36:48;96585.90;;;-0.35;90.41
60246;BME280;46107;53.356;-1.524;2023-03-14T03:39:16;96599.05;;;-0.15;90.86
60246;BME280;46107;53.356;-1.524;2023-03-14T03:41:43;96614.52;;;0.01;90.25
60246;BME280;46107;53.356;-1.524;2023-03-14T03:44:11;96620.18;;;0.20;88.38
60246;BME280;46107;53.356;-1.524;2023-03-14T03:46:38;96627.22;;;0.45;87.58
60246;BME280;46107;53.356;-1.524;2023-03-14T03:49:06;96634.70;;;-0.06;88.89
60246;BME280;46107;53.356;-1.524;2023-03-14T03:51:33;96642.01;;;0.37;86.48
60246;BME280;46107;53.356;-1.524;2023-03-14T03:54:01;96653.30;;;0.25;85.43
60246;BME280;46107;53.356;-1.524;2023-03-14T03:56:29;96663.31;;;0.99;85.55
60246;BME280;46107;53.356;-1.524;2023-03-14T03:58:57;96665.76;;;-0.28;89.72
60246;BME280;46107;53.356;-1.524;2023-03-14T04:01:24;96673.16;;;-0.53;89.62
60246;BME280;46107;53.356;-1.524;2023-03-14T04:03:52;96681.52;;;-0.48;91.48
60246;BME280;46107;53.356;-1.524;2023-03-14T04:06:19;96693.06;;;-0.73;92.38
60246;BME280;46107;53.356;-1.524;2023-03-14T04:08:47;96695.18;;;-0.94;93.54
60246;BME280;46107;53.356;-1.524;2023-03-14T04:11:14;96709.65;;;-0.54;93.04
60246;BME280;46107;53.356;-1.524;2023-03-14T04:13:42;96718.42;;;-0.79;93.11
60246;BME280;46107;53.356;-1.524;2023-03-14T04:16:14;96728.13;;;-1.01;92.25
60246;BME280;46107;53.356;-1.524;2023-03-14T04:18:44;96739.10;;;-0.17;90.88
60246;BME280;46107;53.356;-1.524;2023-03-14T04:21:11;96752.84;;;-1.34;96.09
60246;BME280;46107;53.356;-1.524;2023-03-14T04:23:38;96761.00;;;-2.33;97.17
60246;BME280;46107;53.356;-1.524;2023-03-14T04:26:06;96766.30;;;-0.48;93.19
60246;BME280;46107;53.356;-1.524;2023-03-14T04:28:34;96778.33;;;-0.56;93.31
60246;BME280;46107;53.356;-1.524;2023-03-14T04:31:07;96784.47;;;-0.19;91.92
60246;BME280;46107;53.356;-1.524;2023-03-14T04:33:34;96791.89;;;-0.52;92.53
60246;BME280;46107;53.356;-1.524;2023-03-14T04:36:01;96802.27;;;-0.49;90.79
60246;BME280;46107;53.356;-1.524;2023-03-14T04:38:29;96819.23;;;-0.87;94.17
60246;BME280;46107;53.356;-1.524;2023-03-14T04:40:56;96826.03;;;-1.14;93.98
60246;BME280;46107;53.356;-1.524;2023-03-14T04:43:25;96830.23;;;-0.35;89.02
60246;BME280;46107;53.356;-1.524;2023-03-14T04:45:53;96846.11;;;-0.96;90.92
60246;BME280;46107;53.356;-1.524;2023-03-14T04:48:21;96850.47;;;-0.19;87.27
60246;BME280;46107;53.356;-1.524;2023-03-14T04:50:49;96859.44;;;0.93;83.47
60246;BME280;46107;53.356;-1.524;2023-03-14T04:53:18;96865.47;;;-0.32;86.71
60246;BME280;46107;53.356;-1.524;2023-03-14T04:55:48;96875.71;;;0.09;86.39
60246;BME280;46107;53.356;-1.524;2023-03-14T04:58:16;96881.43;;;0.42;84.06
60246;BME280;46107;53.356;-1.524;2023-03-14T05:00:44;96892.61;;;-0.88;87.99
60246;BME280;46107;53.356;-1.524;2023-03-14T05:03:12;96897.32;;;-0.38;86.26
60246;BME280;46107;53.356;-1.524;2023-03-14T05:05:41;96903.08;;;-0.44;87.83
60246;BME280;46107;53.356;-1.524;2023-03-14T05:08:09;96907.09;;;-0.74;87.76
60246;BME280;46107;53.356;-1.524;2023-03-14T05:10:37;96909.94;;;-0.34;87.05
60246;BME280;46107;53.356;-1.524;2023-03-14T05:13:04;96915.40;;;-0.93;88.10
60246;BME280;46107;53.356;-1.524;2023-03-14T05:15:31;96921.15;;;-0.72;88.84
60246;BME280;46107;53.356;-1.524;2023-03-14T05:17:59;96927.54;;;-0.17;86.01
60246;BME280;46107;53.356;-1.524;2023-03-14T05:20:26;96929.36;;;-1.75;89.35
60246;BME280;46107;53.356;-1.524;2023-03-14T05:22:54;96941.59;;;-1.05;90.81
60246;BME280;46107;53.356;-1.524;2023-03-14T05:25:22;96949.30;;;0.33;84.49
60246;BME280;46107;53.356;-1.524;2023-03-14T05:27:49;96952.20;;;-0.36;86.63
60246;BME280;46107;53.356;-1.524;2023-03-14T05:30:17;96957.57;;;-0.12;88.28
60246;BME280;46107;53.356;-1.524;2023-03-14T05:32:45;96965.27;;;-0.34;88.09
60246;BME280;46107;53.356;-1.524;2023-03-14T05:35:13;96971.60;;;0.11;84.39
60246;BME280;46107;53.356;-1.524;2023-03-14T05:37:41;96980.27;;;-0.19;84.34
60246;BME280;46107;53.356;-1.524;2023-03-14T05:40:09;96989.95;;;0.42;83.06
60246;BME280;46107;53.356;-1.524;2023-03-14T05:42:36;96998.69;;;-0.36;84.78
60246;BME280;46107;53.356;-1.524;2023-03-14T05:45:05;97000.50;;;-0.04;83.68
60246;BME280;46107;53.356;-1.524;2023-03-14T05:47:32;97008.43;;;-0.19;84.46
60246;BME280;46107;53.356;-1.524;2023-03-14T05:49:59;97021.68;;;-0.15;84.90
60246;BME280;46107;53.356;-1.524;2023-03-14T05:52:27;97025.78;;;-0.72;86.89
60246;BME280;46107;53.356;-1.524;2023-03-14T05:54:54;97037.27;;;-0.84;87.05
60246;BME280;46107;53.356;-1.524;2023-03-14T05:57:21;97043.89;;;-0.22;82.69
60246;BME280;46107;53.356;-1.524;2023-03-14T05:59:48;97055.67;;;-0.88;85.53
60246;BME280;46107;53.356;-1.524;2023-03-14T06:02:17;97071.25;;;0.04;82.81
60246;BME280;46107;53.356;-1.524;2023-03-14T06:04:44;97074.96;;;-0.25;83.92
60246;BME280;46107;53.356;-1.524;2023-03-14T06:07:12;97084.24;;;-0.64;84.15
60246;BME280;46107;53.356;-1.524;2023-03-14T06:09:39;97085.92;;;-0.64;84.27
60246;BME280;46107;53.356;-1.524;2023-03-14T06:12:07;97086.37;;;-0.67;83.06
60246;BME280;46107;53.356;-1.524;2023-03-14T06:14:34;97092.35;;;0.09;79.40
60246;BME280;46107;53.356;-1.524;2023-03-14T06:17:04;97094.90;;;-0.06;80.61
60246;BME280;46107;53.356;-1.524;2023-03-14T06:19:32;97096.34;;;-0.37;80.65
60246;BME280;46107;53.356;-1.524;2023-03-14T06:22:00;97105.08;;;-0.05;80.10
60246;BME280;46107;53.356;-1.524;2023-03-14T06:24:27;97111.38;;;0.35;76.29
60246;BME280;46107;53.356;-1.524;2023-03-14T06:26:55;97118.04;;;0.83;75.66
60246;BME280;46107;53.356;-1.524;2023-03-14T06:29:23;97130.37;;;0.82;74.31
60246;BME280;46107;53.356;-1.524;2023-03-14T06:31:50;97140.00;;;0.76;76.79
60246;BME280;46107;53.356;-1.524;2023-03-14T06:34:18;97145.01;;;0.45;77.04
60246;BME280;46107;53.356;-1.524;2023-03-14T06:36:45;97155.52;;;0.41;75.23
60246;BME280;46107;53.356;-1.524;2023-03-14T06:39:13;97163.10;;;-0.44;78.23
60246;BME280;46107;53.356;-1.524;2023-03-14T06:41:40;97166.67;;;0.25;75.12
60246;BME280;46107;53.356;-1.524;2023-03-14T06:44:07;97167.43;;;-0.34;78.03
60246;BME280;46107;53.356;-1.524;2023-03-14T06:46:36;97179.19;;;-0.58;77.81
60246;BME280;46107;53.356;-1.524;2023-03-14T06:49:09;97185.14;;;-0.39;75.81
60246;BME280;46107;53.356;-1.524;2023-03-14T06:51:36;97194.10;;;-0.29;77.65
60246;BME280;46107;53.356;-1.524;2023-03-14T06:54:05;97205.07;;;-0.59;75.76
60246;BME280;46107;53.356;-1.524;2023-03-14T06:56:32;97214.39;;;-0.81;80.40
60246;BME280;46107;53.356;-1.524;2023-03-14T06:59:00;97224.12;;;-1.88;82.56
60246;BME280;46107;53.356;-1.524;2023-03-14T07:01:29;97232.90;;;-1.26;83.20
60246;BME280;46107;53.356;-1.524;2023-03-14T07:03:58;97238.96;;;-0.94;80.99
60246;BME280;46107;53.356;-1.524;2023-03-14T07:06:25;97245.41;;;-1.62;80.38
60246;BME280;46107;53.356;-1.524;2023-03-14T07:08:53;97253.29;;;-0.85;78.71
60246;BME280;46107;53.356;-1.524;2023-03-14T07:11:20;97262.89;;;-1.18;79.16
60246;BME280;46107;53.356;-1.524;2023-03-14T07:13:48;97269.17;;;-0.89;78.11
60246;BME280;46107;53.356;-1.524;2023-03-14T07:16:15;97278.63;;;-0.02;76.51
60246;BME280;46107;53.356;-1.524;2023-03-14T07:18:43;97287.97;;;-1.10;78.46
60246;BME280;46107;53.356;-1.524;2023-03-14T07:21:10;97296.17;;;-0.65;78.88
60246;BME280;46107;53.356;-1.524;2023-03-14T07:23:38;97302.21;;;-0.99;78.11
60246;BME280;46107;53.356;-1.524;2023-03-14T07:26:06;97304.92;;;-1.28;80.25
60246;BME280;46107;53.356;-1.524;2023-03-14T07:28:34;97309.14;;;-0.72;78.28
60246;BME280;46107;53.356;-1.524;2023-03-14T07:31:02;97320.28;;;0.36;77.11
60246;BME280;46107;53.356;-1.524;2023-03-14T07:33:29;97324.37;;;0.57;73.64
60246;BME280;46107;53.356;-1.524;2023-03-14T07:35:57;97331.44;;;0.73;74.41
60246;BME280;46107;53.356;-1.524;2023-03-14T07:38:25;97330.45;;;-0.51;75.69
60246;BME280;46107;53.356;-1.524;2023-03-14T07:40:58;97337.31;;;-0.02;70.91
60246;BME280;46107;53.356;-1.524;2023-03-14T07:43:26;97341.00;;;0.23;71.95
60246;BME280;46107;53.356;-1.524;2023-03-14T07:45:54;97346.85;;;1.35;70.09
60246;BME280;46107;53.356;-1.524;2023-03-14T07:48:21;97348.66;;;2.21;67.46
60246;BME280;46107;53.356;-1.524;2023-03-14T07:50:49;97358.84;;;1.63;66.29
60246;BME280;46107;53.356;-1.524;2023-03-14T07:53:17;97361.72;;;1.26;64.25
60246;BME280;46107;53.356;-1.524;2023-03-14T07:55:45;97374.25;;;0.88;65.92
60246;BME280;46107;53.356;-1.524;2023-03-14T07:58:12;97382.26;;;1.70;65.95
60246;BME280;46107;53.356;-1.524;2023-03-14T08:00:40;97396.21;;;1.38;68.49
60246;BME280;46107;53.356;-1.524;2023-03-14T08:03:07;97405.42;;;0.72;70.47
60246;BME280;46107;53.356;-1.524;2023-03-14T08:05:35;97405.77;;;0.23;72.01
60246;BME280;46107;53.356;-1.524;2023-03-14T08:08:05;97413.29;;;0.21;72.22
60246;BME280;46107;53.356;-1.524;2023-03-14T08:10:32;97425.25;;;-0.28;72.10
60246;BME280;46107;53.356;-1.524;2023-03-14T08:13:00;97430.49;;;1.05;71.66
60246;BME280;46107;53.356;-1.524;2023-03-14T08:15:29;97441.94;;;0.72;70.68
60246;BME280;46107;53.356;-1.524;2023-03-14T08:17:57;97446.86;;;0.52;71.53
60246;BME280;46107;53.356;-1.524;2023-03-14T08:20:26;97454.32;;;0.88;69.37
60246;BME280;46107;53.356;-1.524;2023-03-14T08:22:56;97460.50;;;1.00;73.25
60246;BME280;46107;53.356;-1.524;2023-03-14T08:25:25;97461.26;;;1.33;69.28
60246;BME280;46107;53.356;-1.524;2023-03-14T08:27:53;97469.15;;;-0.23;64.23
60246;BME280;46107;53.356;-1.524;2023-03-14T08:30:22;97470.68;;;0.61;69.74
60246;BME280;46107;53.356;-1.524;2023-03-14T08:32:49;97481.59;;;2.00;68.64
60246;BME280;46107;53.356;-1.524;2023-03-14T08:35:16;97485.13;;;2.13;67.42
60246;BME280;46107;53.356;-1.524;2023-03-14T08:37:45;97492.51;;;2.28;66.07
60246;BME280;46107;53.356;-1.524;2023-03-14T08:40:13;97499.75;;;2.78;61.45
60246;BME280;46107;53.356;-1.524;2023-03-14T08:42:41;97498.93;;;2.17;66.25
60246;BME280;46107;53.356;-1.524;2023-03-14T08:45:11;97507.66;;;1.66;61.28
60246;BME280;46107;53.356;-1.524;2023-03-14T08:47:39;97519.92;;;1.50;64.57
60246;BME280;46107;53.356;-1.524;2023-03-14T08:50:08;97524.32;;;3.05;58.62
60246;BME280;46107;53.356;-1.524;2023-03-14T08:52:36;97536.25;;;1.49;60.28
60246;BME280;46107;53.356;-1.524;2023-03-14T08:55:05;97539.42;;;1.71;62.41
60246;BME280;46107;53.356;-1.524;2023-03-14T08:57:32;97543.66;;;1.80;63.56
60246;BME280;46107;53.356;-1.524;2023-03-14T09:00:00;97546.90;;;2.50;62.38
60246;BME280;46107;53.356;-1.524;2023-03-14T09:02:27;97553.75;;;2.25;61.24
60246;BME280;46107;53.356;-1.524;2023-03-14T09:04:55;97557.67;;;1.37;59.46
60246;BME280;46107;53.356;-1.524;2023-03-14T09:07:23;97560.44;;;2.13;61.85
60246;BME280;46107;53.356;-1.524;2023-03-14T09:09:50;97561.43;;;2.33;58.41
60246;BME280;46107;53.356;-1.524;2023-03-14T09:12:18;97565.92;;;2.38;65.84
60246;BME280;46107;53.356;-1.524;2023-03-14T09:14:45;97572.33;;;3.96;60.29
60246;BME280;46107;53.356;-1.524;2023-03-14T09:17:14;97578.36;;;3.67;63.53
60246;BME280;46107;53.356;-1.524;2023-03-14T09:19:41;97586.72;;;2.82;59.21
60246;BME280;46107;53.356;-1.524;2023-03-14T09:22:09;97586.73;;;2.92;61.33
60246;BME280;46107;53.356;-1.524;2023-03-14T09:24:36;97595.13;;;2.83;61.91
60246;BME280;46107;53.356;-1.524;2023-03-14T09:27:04;97602.87;;;2.97;60.43
60246;BME280;46107;53.356;-1.524;2023-03-14T09:29:31;97610.88;;;2.81;61.48
60246;BME280;46107;53.356;-1.524;2023-03-14T09:32:00;97616.90;;;2.59;66.64
60246;BME280;46107;53.356;-1.524;2023-03-14T09:34:27;97620.96;;;3.43;63.37
60246;BME280;46107;53.356;-1.524;2023-03-14T09:36:55;97626.75;;;3.25;61.06
60246;BME280;46107;53.356;-1.524;2023-03-14T09:39:22;97623.72;;;3.32;60.80
60246;BME280;46107;53.356;-1.524;2023-03-14T09:41:51;97626.87;;;3.47;61.90
60246;BME280;46107;53.356;-1.524;2023-03-14T09:44:22;97630.37;;;2.92;60.07
60246;BME280;46107;53.356;-1.524;2023-03-14T09:46:53;97635.88;;;1.07;61.22
60246;BME280;46107;53.356;-1.524;2023-03-14T09:49:25;97646.67;;;2.59;58.41
60246;BME280;46107;53.356;-1.524;2023-03-14T09:51:56;97656.06;;;1.66;60.55
60246;BME280;46107;53.356;-1.524;2023-03-14T09:54:31;97663.65;;;0.85;64.09
60246;BME280;46107;53.356;-1.524;2023-03-14T09:57:03;97674.35;;;1.50;62.31
60246;BME280;46107;53.356;-1.524;2023-03-14T09:59:32;97669.44;;;0.91;64.38
60246;BME280;46107;53.356;-1.524;2023-03-14T10:02:13;97675.15;;;1.60;63.12
60246;BME280;46107;53.356;-1.524;2023-03-14T10:04:42;97672.42;;;2.05;60.25
60246;BME280;46107;53.356;-1.524;2023-03-14T10:07:14;97674.23;;;2.17;62.16
60246;BME280;46107;53.356;-1.524;2023-03-14T10:09:44;97673.82;;;2.43;56.87
60246;BME280;46107;53.356;-1.524;2023-03-14T10:12:12;97671.25;;;1.71;62.04
60246;BME280;46107;53.356;-1.524;2023-03-14T10:14:46;97671.45;;;2.39;59.60
60246;BME280;46107;53.356;-1.524;2023-03-14T10:17:16;97671.10;;;2.50;56.43
60246;BME280;46107;53.356;-1.524;2023-03-14T10:19:53;97675.15;;;1.54;56.56
60246;BME280;46107;53.356;-1.524;2023-03-14T10:22:22;97673.98;;;1.36;54.52
60246;BME280;46107;53.356;-1.524;2023-03-14T10:24:53;97683.86;;;2.14;57.02
60246;BME280;46107;53.356;-1.524;2023-03-14T10:27:28;97689.88;;;2.15;54.93
60246;BME280;46107;53.356;-1.524;2023-03-14T10:29:58;97689.20;;;2.57;55.67
60246;BME280;46107;53.356;-1.524;2023-03-14T10:32:32;97693.59;;;2.44;50.37
60246;BME280;46107;53.356;-1.524;2023-03-14T10:35:18;97701.06;;;2.03;57.11
60246;BME280;46107;53.356;-1.524;2023-03-14T10:37:53;97709.41;;;2.92;54.22
60246;BME280;46107;53.356;-1.524;2023-03-14T10:40:27;97707.83;;;2.92;55.05
60246;BME280;46107;53.356;-1.524;2023-03-14T10:42:55;97713.84;;;2.09;52.33
60246;BME280;46107;53.356;-1.524;2023-03-14T10:45:32;97721.01;;;1.18;53.89
60246;BME280;46107;53.356;-1.524;2023-03-14T10:48:18;97730.20;;;1.90;57.91
60246;BME280;46107;53.356;-1.524;2023-03-14T10:50:57;97742.84;;;1.76;57.32
60246;BME280;46107;53.356;-1.524;2023-03-14T10:53:34;97748.31;;;1.41;54.96
60246;BME280;46107;53.356;-1.524;2023-03-14T10:56:05;97759.98;;;2.06;57.17
60246;BME280;46107;53.356;-1.524;2023-03-14T10:58:37;97768.51;;;3.06;56.04
60246;BME280;46107;53.356;-1.524;2023-03-14T11:01:17;97761.03;;;3.00;54.79
60246;BME280;46107;53.356;-1.524;2023-03-14T11:03:56;97771.34;;;2.02;58.50
60246;BME280;46107;53.356;-1.524;2023-03-14T11:06:28;97773.00;;;1.47;53.92
60246;BME280;46107;53.356;-1.524;2023-03-14T11:09:03;97780.84;;;2.26;55.72
60246;BME280;46107;53.356;-1.524;2023-03-14T11:11:33;97790.98;;;2.45;54.31
60246;BME280;46107;53.356;-1.524;2023-03-14T11:14:08;97800.11;;;2.02;55.24
60246;BME280;46107;53.356;-1.524;2023-03-14T11:16:47;97815.12;;;1.51;56.93
60246;BME280;46107;53.356;-1.524;2023-03-14T11:19:36;97815.63;;;1.36;58.69
60246;BME280;46107;53.356;-1.524;2023-03-14T11:22:14;97824.83;;;1.79;54.01
60246;BME280;46107;53.356;-1.524;2023-03-14T11:24:55;97829.68;;;1.86;57.43
60246;BME280;46107;53.356;-1.524;2023-03-14T11:27:34;97846.44;;;1.61;59.61
60246;BME280;46107;53.356;-1.524;2023-03-14T11:30:16;97862.63;;;1.38;61.95
60246;BME280;46107;53.356;-1.524;2023-03-14T11:32:46;97875.31;;;0.75;67.04
60246;BME280;46107;53.356;-1.524;2023-03-14T11:35:24;97884.47;;;-0.43;72.56
60246;BME280;46107;53.356;-1.524;2023-03-14T11:37:58;97879.01;;;0.69;72.19
60246;BME280;46107;53.356;-1.524;2023-03-14T11:40:29;97884.57;;;0.57;73.01
60246;BME280;46107;53.356;-1.524;2023-03-14T11:43:04;97890.45;;;-0.72;78.61
60246;BME280;46107;53.356;-1.524;2023-03-14T11:45:36;97890.17;;;-1.13;80.39
60246;BME280;46107;53.356;-1.524;2023-03-14T11:48:14;97870.71;;;0.42;77.04
60246;BME280;46107;53.356;-1.524;2023-03-14T11:50:45;97870.30;;;0.18;74.14
60246;BME280;46107;53.356;-1.524;2023-03-14T11:53:17;97860.88;;;1.13;72.82
60246;BME280;46107;53.356;-1.524;2023-03-14T11:55:47;97860.34;;;1.09;70.79
60246;BME280;46107;53.356;-1.524;2023-03-14T11:58:18;97856.92;;;1.23;72.20
60246;BME280;46107;53.356;-1.524;2023-03-14T12:00:48;97857.68;;;0.92;75.10
60246;BME280;46107;53.356;-1.524;2023-03-14T12:03:23;97844.33;;;2.25;72.11
60246;BME280;46107;53.356;-1.524;2023-03-14T12:06:00;97846.52;;;2.43;71.82
60246;BME280;46107;53.356;-1.524;2023-03-14T12:09:04;97851.27;;;3.13;70.69
60246;BME280;46107;53.356;-1.524;2023-03-14T12:11:38;97853.67;;;3.35;66.49
60246;BME280;46107;53.356;-1.524;2023-03-14T12:14:20;97856.87;;;3.82;63.73
60246;BME280;46107;53.356;-1.524;2023-03-14T12:16:52;97860.60;;;3.60;65.03
60246;BME280;46107;53.356;-1.524;2023-03-14T12:19:28;97856.49;;;4.07;67.85
60246;BME280;46107;53.356;-1.524;2023-03-14T12:22:00;97856.68;;;3.41;68.86
60246;BME280;46107;53.356;-1.524;2023-03-14T12:24:30;97857.55;;;3.75;65.81
60246;BME280;46107;53.356;-1.524;2023-03-14T12:27:00;97864.14;;;2.76;67.58
60246;BME280;46107;53.356;-1.524;2023-03-14T12:29:28;97859.67;;;2.95;68.28
60246;BME280;46107;53.356;-1.524;2023-03-14T12:32:23;97862.77;;;4.44;67.54
60246;BME280;46107;53.356;-1.524;2023-03-14T12:34:51;97865.10;;;4.12;65.95
60246;BME280;46107;53.356;-1.524;2023-03-14T12:37:24;97870.16;;;4.31;62.57
60246;BME280;46107;53.356;-1.524;2023-03-14T12:40:06;97875.75;;;3.76;59.71
60246;BME280;46107;53.356;-1.524;2023-03-14T12:42:46;97888.45;;;2.73;61.94
60246;BME280;46107;53.356;-1.524;2023-03-14T12:45:28;97897.39;;;1.91;62.29
60246;BME280;46107;53.356;-1.524;2023-03-14T12:48:06;97885.93;;;2.38;64.65
60246;BME280;46107;53.356;-1.524;2023-03-14T12:50:39;97893.88;;;2.74;62.24
60246;BME280;46107;53.356;-1.524;2023-03-14T12:53:35;97899.17;;;3.30;62.45
60246;BME280;46107;53.356;-1.524;2023-03-14T12:56:17;97896.13;;;2.49;61.82
60246;BME280;46107;53.356;-1.524;2023-03-14T12:59:00;97896.80;;;2.63;61.35
60246;BME280;46107;53.356;-1.524;2023-03-14T13:01:33;97902.26;;;1.65;67.39
60246;BME280;46107;53.356;-1.524;2023-03-14T13:04:07;97891.00;;;2.64;66.56
60246;BME280;46107;53.356;-1.524;2023-03-14T13:06:54;97889.34;;;2.73;64.76
60246;BME280;46107;53.356;-1.524;2023-03-14T13:10:16;97881.15;;;2.81;68.23
60246;BME280;46107;53.356;-1.524;2023-03-14T13:12:49;97889.91;;;2.47;69.35
60246;BME280;46107;53.356;-1.524;2023-03-14T13:15:21;97906.36;;;1.62;71.06